Time;durP1;ratioP1;P1;durP2;ratioP2;P2;SDS_P1;SDS_P2;PMS_P1;PMS_P2;Temp;Humidity;BMP_temperature;BMP_pressure;BME280_temperature;BME280_humidity;BME280_pressure;Samples;Min_cycle;Max_cycle;Signal;HPM_P1;HPM_P2
2022/05/25 00:00:49;;;;;;;9.80;7.80;;;;;;;13.57;85.29;96286.16;107267;1273;61221;-74
2022/05/25 00:03:19;;;;;;;8.70;7.10;;;;;;;13.59;85.68;96280.84;107317;1273;58957;-74
2022/05/25 00:05:51;;;;;;;8.00;7.10;;;;;;;13.63;85.87;96279.50;107307;1273;41873;-74
2022/05/25 00:08:22;;;;;;;9.40;6.40;;;;;;;13.59;85.72;96286.02;107274;1273;54722;-74
2022/05/25 00:10:56;;;;;;;9.60;7.00;;;;;;;13.51;85.94;96284.33;107327;1273;31704;-74
2022/05/25 00:13:28;;;;;;;10.40;7.20;;;;;;;13.49;86.40;96282.63;107379;1273;31370;-74
2022/05/25 00:15:59;;;;;;;8.40;6.90;;;;;;;13.50;86.41;96281.05;107289;1273;47089;-75
2022/05/25 00:18:31;;;;;;;8.60;6.80;;;;;;;13.55;86.31;96285.36;107350;1270;33358;-75
2022/05/25 00:21:04;;;;;;;9.40;7.00;;;;;;;13.64;86.05;96283.16;107313;1273;45208;-74
2022/05/25 00:23:35;;;;;;;10.20;7.60;;;;;;;13.68;85.68;96285.31;107247;1273;51911;-74
2022/05/25 00:26:06;;;;;;;9.90;6.50;;;;;;;13.64;85.36;96283.42;107315;1273;72225;-74
2022/05/25 00:28:37;;;;;;;8.00;6.60;;;;;;;13.51;85.02;96285.55;107271;1273;114158;-73
2022/05/25 00:31:08;;;;;;;7.70;6.50;;;;;;;13.43;85.01;96288.27;107316;1273;32300;-74
2022/05/25 00:33:39;;;;;;;8.30;6.70;;;;;;;13.28;84.75;96290.01;107330;1273;52631;-74
2022/05/25 00:36:13;;;;;;;9.70;7.00;;;;;;;13.11;85.00;96293.80;107366;1273;29780;-74
2022/05/25 00:38:44;;;;;;;8.80;6.50;;;;;;;12.98;85.91;96297.55;107256;1273;65535;-74
2022/05/25 00:41:14;;;;;;;8.50;7.00;;;;;;;13.00;86.95;96298.30;107225;1273;63501;-74
2022/05/25 00:43:45;;;;;;;10.40;6.80;;;;;;;13.12;87.50;96303.43;107340;1273;33838;-74
2022/05/25 00:46:19;;;;;;;7.90;6.40;;;;;;;13.23;87.77;96299.56;107276;1274;33261;-74
2022/05/25 00:48:53;;;;;;;10.60;7.40;;;;;;;13.30;87.65;96298.27;107216;1273;79453;-74
2022/05/25 00:51:31;;;;;;;9.60;7.80;;;;;;;13.32;87.77;96299.50;107336;1273;38154;-74
2022/05/25 00:54:06;;;;;;;8.10;7.10;;;;;;;13.34;87.54;96300.63;107261;1273;79616;-74
2022/05/25 00:56:41;;;;;;;7.80;6.60;;;;;;;13.27;87.33;96300.86;107332;1273;35613;-74
2022/05/25 00:59:15;;;;;;;8.60;6.40;;;;;;;13.28;87.57;96295.99;107301;1273;63138;-74
2022/05/25 01:01:46;;;;;;;6.90;6.00;;;;;;;13.37;87.93;96300.03;107283;1273;61644;-74
2022/05/25 01:04:18;;;;;;;7.90;6.40;;;;;;;13.49;88.04;96299.05;107298;1273;67443;-74
2022/05/25 01:07:03;;;;;;;7.70;6.90;;;;;;;13.55;87.90;96298.75;107288;1273;57081;-74
2022/05/25 01:09:43;;;;;;;9.70;8.30;;;;;;;13.47;87.73;96296.05;107332;1271;40968;-74
2022/05/25 01:12:18;;;;;;;;;;;;;;;13.39;87.97;96291.79;107269;1273;59735;-74
2022/05/25 01:15:04;;;;;;;9.40;6.80;;;;;;;13.39;88.46;96291.58;107342;1273;31866;-74
2022/05/25 01:17:50;;;;;;;11.50;7.70;;;;;;;13.46;89.05;96296.23;107312;1273;40013;-74
2022/05/25 01:20:30;;;;;;;10.80;7.50;;;;;;;13.60;89.06;96296.79;107200;1273;84005;-74
2022/05/25 01:23:32;;;;;;;12.00;7.70;;;;;;;13.72;89.02;96294.20;107326;1273;33651;-75
2022/05/25 01:26:33;;;;;;;10.70;8.50;;;;;;;13.79;88.58;96290.29;107092;1275;72109;-75
2022/05/25 01:29:13;;;;;;;10.40;8.40;;;;;;;13.82;88.28;96289.31;107259;1274;32319;-75
2022/05/25 01:31:54;;;;;;;11.50;8.50;;;;;;;13.79;88.39;96282.04;107248;1273;69261;-74
2022/05/25 01:34:34;;;;;;;10.60;8.50;;;;;;;13.79;88.99;96284.23;107396;1273;34626;-74
2022/05/25 01:37:15;;;;;;;12.30;9.70;;;;;;;13.85;89.16;96287.27;107363;1273;31384;-75
2022/05/25 01:39:54;;;;;;;11.10;8.90;;;;;;;13.91;89.38;96288.95;107226;1273;83183;-74
2022/05/25 01:42:30;;;;;;;12.20;9.10;;;;;;;13.92;89.27;96292.95;107399;1273;32079;-74
2022/05/25 01:45:07;;;;;;;12.50;9.40;;;;;;;13.93;89.29;96290.35;107288;1273;48667;-75
2022/05/25 01:47:43;;;;;;;10.60;8.90;;;;;;;13.99;89.51;96291.63;107295;1273;56104;-74
2022/05/25 01:50:17;;;;;;;13.00;9.40;;;;;;;14.03;89.56;96291.27;107345;1273;36108;-75
2022/05/25 01:52:54;;;;;;;12.10;9.60;;;;;;;14.03;89.47;96293.12;107210;1274;67132;-74
2022/05/25 01:55:29;;;;;;;11.60;8.70;;;;;;;14.02;89.59;96295.13;107345;1274;35077;-74
2022/05/25 01:58:06;;;;;;;12.70;10.10;;;;;;;14.02;89.70;96304.94;107258;1274;60661;-75
2022/05/25 02:00:40;;;;;;;11.00;8.40;;;;;;;14.07;89.83;96311.89;107316;1273;37866;-75
2022/05/25 02:06:18;;;;;;;11.50;9.30;;;;;;;14.34;89.88;96303.73;107299;1273;59412;-75
2022/05/25 02:09:03;;;;;;;10.70;8.90;;;;;;;14.47;89.71;96302.98;107348;1273;34444;-75
2022/05/25 02:11:40;;;;;;;10.30;8.70;;;;;;;14.55;89.24;96307.94;107351;1273;34148;-75
2022/05/25 02:14:24;;;;;;;10.40;8.20;;;;;;;14.57;88.63;96311.23;107215;1273;107184;-75
2022/05/25 02:17:02;;;;;;;11.30;8.80;;;;;;;14.63;88.63;96313.31;107381;1273;33860;-74
2022/05/25 02:19:40;;;;;;;12.70;9.30;;;;;;;14.68;88.44;96306.63;107265;1273;71701;-75
2022/05/25 02:22:18;;;;;;;11.40;9.00;;;;;;;14.72;88.26;96304.02;107332;1273;41558;-74
2022/05/25 02:24:53;;;;;;;12.30;8.90;;;;;;;14.87;88.08;96307.86;107216;1273;72892;-75
2022/05/25 02:27:30;;;;;;;10.20;8.50;;;;;;;14.93;87.58;96309.08;107290;1274;59363;-74
2022/05/25 02:30:09;;;;;;;12.50;8.50;;;;;;;14.96;87.39;96307.38;107287;1273;85256;-75
2022/05/25 02:32:45;;;;;;;10.60;8.80;;;;;;;14.98;87.04;96308.98;107346;1273;44220;-74
2022/05/25 02:35:17;;;;;;;12.80;8.90;;;;;;;14.98;86.89;96307.77;107339;1273;35540;-75
2022/05/25 02:37:49;;;;;;;12.10;8.70;;;;;;;14.98;86.91;96304.89;107247;1273;101581;-74
2022/05/25 02:40:21;;;;;;;11.40;8.10;;;;;;;14.96;86.92;96300.88;107233;1274;52823;-75
2022/05/25 02:42:51;;;;;;;10.50;8.50;;;;;;;14.94;87.16;96298.05;107228;1273;72150;-75
2022/05/25 02:45:23;;;;;;;11.50;8.20;;;;;;;14.97;87.36;96299.71;107391;1273;37379;-75
2022/05/25 02:47:54;;;;;;;11.10;8.50;;;;;;;14.99;87.48;96297.05;107352;1273;34115;-75
2022/05/25 02:50:25;;;;;;;8.90;7.80;;;;;;;15.01;87.41;96292.70;107300;1273;96191;-75
2022/05/25 02:52:58;;;;;;;9.30;7.40;;;;;;;15.01;87.26;96288.42;107339;1274;36529;-75
2022/05/25 02:55:31;;;;;;;10.30;8.00;;;;;;;14.93;87.19;96289.94;107259;1274;72489;-75
2022/05/25 02:58:02;;;;;;;10.70;7.80;;;;;;;14.78;86.93;96300.22;107102;1274;89022;-75
2022/05/25 03:00:33;;;;;;;10.90;8.90;;;;;;;14.63;86.99;96308.08;107325;1273;56105;-75
2022/05/25 03:03:06;;;;;;;12.20;8.40;;;;;;;14.42;87.70;96312.81;107162;1274;55427;-75
2022/05/25 03:05:37;;;;;;;10.40;7.30;;;;;;;14.32;88.56;96313.83;107203;1274;62064;-75
2022/05/25 03:08:09;;;;;;;8.80;6.50;;;;;;;14.30;89.12;96315.55;107191;1273;122512;-75
2022/05/25 03:10:40;;;;;;;9.00;6.90;;;;;;;14.29;89.66;96319.20;107227;1273;87179;-75
2022/05/25 03:13:12;;;;;;;7.90;6.80;;;;;;;14.27;90.17;96321.63;107187;1273;76068;-74
2022/05/25 03:15:43;;;;;;;8.10;6.70;;;;;;;14.24;90.37;96324.33;107233;1273;96255;-75
2022/05/25 03:18:14;;;;;;;9.00;6.90;;;;;;;14.23;90.55;96326.84;107331;1273;38354;-74
2022/05/25 03:20:47;;;;;;;7.00;6.30;;;;;;;14.25;90.84;96330.04;107293;1273;59116;-74
2022/05/25 03:23:19;;;;;;;8.10;6.90;;;;;;;14.24;90.94;96328.88;107333;1273;52112;-74
2022/05/25 03:25:50;;;;;;;10.20;7.40;;;;;;;14.28;91.12;96334.30;107246;1273;75199;-74
2022/05/25 03:28:21;;;;;;;12.10;8.20;;;;;;;14.31;91.19;96333.34;107305;1273;55907;-75
2022/05/25 03:30:55;;;;;;;7.90;6.40;;;;;;;14.34;91.38;96333.81;107362;1273;34463;-74
2022/05/25 03:33:26;;;;;;;8.10;6.90;;;;;;;14.41;91.42;96334.23;107340;1273;71826;-74
2022/05/25 03:35:57;;;;;;;7.90;6.90;;;;;;;14.49;91.43;96335.19;107422;1273;36431;-74
2022/05/25 03:38:28;;;;;;;7.60;6.50;;;;;;;14.56;91.56;96337.57;107138;1273;115495;-74
2022/05/25 03:41:01;;;;;;;10.30;8.30;;;;;;;14.55;91.42;96334.86;107350;1274;41529;-74
2022/05/25 03:43:36;;;;;;;8.60;7.20;;;;;;;14.48;91.45;96325.15;107339;1273;46359;-75
2022/05/25 03:46:07;;;;;;;9.50;7.20;;;;;;;14.43;91.65;96323.73;107099;1273;110839;-75
2022/05/25 03:48:38;;;;;;;10.30;7.30;;;;;;;14.39;91.75;96322.94;107324;1273;44563;-74
2022/05/25 03:51:09;;;;;;;10.20;7.30;;;;;;;14.36;92.02;96327.60;107103;1274;84579;-74
2022/05/25 03:53:40;;;;;;;9.40;7.10;;;;;;;14.40;92.30;96327.42;107210;1274;60380;-74
2022/05/25 03:56:11;;;;;;;8.90;7.00;;;;;;;14.51;92.38;96328.11;107130;1273;111809;-74
2022/05/25 03:58:43;;;;;;;9.50;8.00;;;;;;;14.62;92.31;96329.52;107150;1274;140017;-75
2022/05/25 04:01:14;;;;;;;10.00;9.00;;;;;;;14.69;92.27;96331.30;107158;1275;87135;-74
2022/05/25 04:03:45;;;;;;;11.40;9.20;;;;;;;14.73;92.04;96338.42;107225;1273;107394;-74
2022/05/25 04:06:16;;;;;;;10.40;8.00;;;;;;;14.73;91.88;96341.56;107182;1274;89345;-74
2022/05/25 04:08:47;;;;;;;9.50;7.70;;;;;;;14.69;91.90;96343.98;107108;1273;105478;-74
2022/05/25 04:11:18;;;;;;;9.30;7.60;;;;;;;14.69;92.26;96346.39;107250;1274;55469;-74
2022/05/25 04:13:49;;;;;;;8.30;7.40;;;;;;;14.75;92.47;96344.86;107313;1272;71539;-74
2022/05/25 04:16:20;;;;;;;9.00;7.40;;;;;;;14.83;92.72;96347.61;107341;1273;38160;-74
2022/05/25 04:18:51;;;;;;;9.30;8.20;;;;;;;14.83;92.60;96349.06;107215;1273;92057;-74
2022/05/25 04:21:22;;;;;;;11.20;8.60;;;;;;;14.78;92.54;96346.02;107329;1273;40446;-74
2022/05/25 04:23:53;;;;;;;9.60;8.40;;;;;;;14.83;92.72;96343.47;107259;1273;122734;-74
2022/05/25 04:26:24;;;;;;;8.70;7.80;;;;;;;14.80;92.61;96339.92;107182;1274;88007;-75
2022/05/25 04:28:55;;;;;;;9.20;7.70;;;;;;;14.74;92.45;96344.52;107358;1273;31158;-74
2022/05/25 04:31:26;;;;;;;8.70;7.30;;;;;;;14.77;92.48;96344.80;107327;1273;85793;-74
2022/05/25 04:33:57;;;;;;;8.20;7.20;;;;;;;14.81;92.42;96339.30;107427;1273;32011;-74
2022/05/25 04:36:28;;;;;;;9.40;7.30;;;;;;;14.86;92.50;96336.52;107350;1273;74691;-74
2022/05/25 04:38:59;;;;;;;8.80;7.50;;;;;;;14.92;92.58;96337.11;107411;1273;39761;-74
2022/05/25 04:41:32;;;;;;;8.80;7.90;;;;;;;15.01;92.71;96336.64;107266;1273;79125;-75
2022/05/25 04:44:05;;;;;;;10.40;8.90;;;;;;;15.06;92.85;96329.87;107258;1273;94848;-74
2022/05/25 04:46:35;;;;;;;10.10;8.30;;;;;;;15.01;92.69;96331.40;107283;1273;64586;-74
2022/05/25 04:49:07;;;;;;;9.20;8.30;;;;;;;14.89;92.37;96333.83;107014;1274;100596;-74
2022/05/25 04:51:38;;;;;;;10.40;7.80;;;;;;;14.86;92.45;96333.14;107247;1274;35523;-74
2022/05/25 04:54:09;;;;;;;10.40;7.40;;;;;;;14.87;92.73;96328.92;107184;1275;72599;-75
2022/05/25 04:59:32;;;;;;;11.80;8.90;;;;;;;14.87;93.35;96323.87;107404;1273;35695;-74
2022/05/25 05:02:03;;;;;;;9.00;7.50;;;;;;;14.93;93.45;96323.92;107342;1273;52571;-74
2022/05/25 05:04:34;;;;;;;9.80;7.70;;;;;;;15.01;93.70;96323.70;107292;1273;86693;-74
2022/05/25 05:07:06;;;;;;;10.80;7.20;;;;;;;15.04;93.69;96323.20;107127;1273;102086;-74
2022/05/25 05:09:38;;;;;;;10.30;7.80;;;;;;;15.04;93.62;96319.70;107259;1274;32701;-74
2022/05/25 05:12:13;;;;;;;10.40;7.80;;;;;;;15.08;93.69;96318.16;107159;1273;103376;-74
2022/05/25 05:14:46;;;;;;;9.70;8.70;;;;;;;15.19;93.87;96321.73;107373;1273;30425;-74
2022/05/25 05:17:17;;;;;;;9.50;8.30;;;;;;;15.20;94.08;96325.54;107215;1273;78485;-74
2022/05/25 05:19:48;;;;;;;9.70;8.40;;;;;;;15.11;93.63;96334.96;105998;1273;1798922;-75
2022/05/25 05:22:21;;;;;;;10.20;8.90;;;;;;;15.10;93.65;96336.81;107166;1275;67763;-74
2022/05/25 05:24:52;;;;;;;10.10;8.90;;;;;;;15.15;93.55;96338.95;107268;1273;89640;-74
2022/05/25 05:27:23;;;;;;;8.70;7.80;;;;;;;15.15;93.48;96331.71;107392;1273;32765;-75
2022/05/25 05:29:54;;;;;;;10.40;8.70;;;;;;;15.24;93.60;96326.60;107261;1273;90543;-74
2022/05/25 05:32:25;;;;;;;9.40;7.90;;;;;;;15.35;94.05;96330.02;107274;1274;100062;-74
2022/05/25 05:34:57;;;;;;;9.10;8.00;;;;;;;15.39;94.03;96331.03;107304;1273;122362;-74
2022/05/25 05:37:32;;;;;;;11.00;8.70;;;;;;;15.42;93.96;96329.08;107237;1274;83697;-74
2022/05/25 05:40:06;;;;;;;9.70;7.90;;;;;;;15.51;94.15;96328.48;107381;1273;33346;-75
2022/05/25 05:42:40;;;;;;;9.80;7.40;;;;;;;15.66;94.42;96329.36;105764;1273;2011154;-74
2022/05/25 05:45:17;;;;;;;8.90;8.00;;;;;;;15.79;94.26;96331.16;107369;1273;36281;-74
2022/05/25 05:47:53;;;;;;;8.70;7.80;;;;;;;15.90;93.86;96340.10;106272;1273;1499059;-74
2022/05/25 05:50:26;;;;;;;10.30;8.60;;;;;;;15.99;93.49;96343.43;107102;1275;84731;-74
2022/05/25 05:52:58;;;;;;;9.70;8.70;;;;;;;16.01;93.16;96342.92;107411;1273;43995;-74
2022/05/25 05:55:29;;;;;;;10.30;9.30;;;;;;;16.09;93.19;96333.77;107215;1274;107660;-74
2022/05/25 05:58:00;;;;;;;10.00;8.60;;;;;;;16.20;93.18;96324.59;107220;1274;41435;-74
2022/05/25 06:00:32;;;;;;;9.60;8.60;;;;;;;16.38;93.20;96321.70;107112;1274;87683;-75
2022/05/25 06:03:03;;;;;;;9.20;8.30;;;;;;;16.63;93.59;96317.75;107153;1274;78671;-74
2022/05/25 06:05:37;;;;;;;11.30;8.30;;;;;;;16.85;93.22;96319.43;107281;1273;61468;-74
2022/05/25 06:08:15;;;;;;;10.40;8.10;;;;;;;16.94;92.32;96319.77;107178;1273;77471;-75
2022/05/25 06:10:47;;;;;;;9.60;8.60;;;;;;;17.01;91.34;96318.82;107297;1276;35563;-74
2022/05/25 06:13:21;;;;;;;9.80;8.30;;;;;;;17.29;90.84;96318.54;107237;1273;108880;-74
2022/05/25 06:21:32;;;;;;;11.40;7.90;;;;;;;18.39;87.97;96326.95;107278;1273;98067;-75
2022/05/25 06:24:03;;;;;;;13.50;8.90;;;;;;;18.43;87.04;96324.69;107288;1274;47043;-75
2022/05/25 06:26:34;;;;;;;9.20;8.20;;;;;;;18.39;86.59;96322.44;107214;1273;117122;-74
2022/05/25 06:29:06;;;;;;;10.90;8.60;;;;;;;18.28;85.90;96322.08;107134;1274;106935;-75
2022/05/25 06:31:37;;;;;;;9.70;8.70;;;;;;;18.16;85.90;96326.54;107306;1273;62336;-74
2022/05/25 06:34:08;;;;;;;10.80;7.70;;;;;;;18.10;85.41;96324.34;107163;1273;81911;-75
2022/05/25 06:36:39;;;;;;;9.70;7.30;;;;;;;18.04;85.09;96323.38;107296;1273;46459;-74
2022/05/25 06:39:10;;;;;;;10.30;8.40;;;;;;;18.03;85.42;96321.77;107226;1273;72761;-74
2022/05/25 06:41:41;;;;;;;11.70;7.90;;;;;;;18.09;85.20;96323.69;107354;1273;37241;-74
2022/05/25 06:44:12;;;;;;;13.00;8.50;;;;;;;18.12;85.27;96321.48;107223;1273;80839;-74
2022/05/25 06:46:43;;;;;;;10.20;8.80;;;;;;;18.19;85.37;96323.88;107393;1273;31638;-74
2022/05/25 06:49:15;;;;;;;8.50;7.60;;;;;;;18.25;84.74;96327.52;107238;1273;98507;-74
2022/05/25 06:51:46;;;;;;;10.90;7.50;;;;;;;18.26;83.92;96326.16;107241;1274;37667;-74
2022/05/25 06:54:19;;;;;;;9.40;8.10;;;;;;;18.29;83.92;96326.80;107191;1274;77740;-74
2022/05/25 06:56:51;;;;;;;8.80;7.50;;;;;;;18.36;83.77;96323.14;107041;1274;118157;-74
2022/05/25 06:59:23;;;;;;;11.30;8.60;;;;;;;18.32;83.43;96321.40;107075;1274;140627;-74
2022/05/25 07:01:55;;;;;;;11.60;7.10;;;;;;;18.41;83.88;96322.73;107030;1274;137574;-74
2022/05/25 07:04:27;;;;;;;10.40;7.50;;;;;;;18.49;83.55;96318.23;107387;1273;81025;-74
2022/05/25 07:07:01;;;;;;;12.00;8.30;;;;;;;18.67;83.65;96312.58;107338;1273;105078;-74
2022/05/25 07:09:36;;;;;;;11.20;8.00;;;;;;;19.00;83.66;96307.84;106990;1274;114464;-75
2022/05/25 07:12:08;;;;;;;10.80;7.00;;;;;;;19.25;82.68;96294.02;107384;1273;38164;-74
2022/05/25 07:14:40;;;;;;;10.70;7.90;;;;;;;19.35;81.73;96291.79;107061;1273;117080;-74
2022/05/25 07:17:11;;;;;;;9.30;6.80;;;;;;;19.74;81.10;96288.17;107269;1275;40485;-74
2022/05/25 07:19:42;;;;;;;8.90;6.30;;;;;;;19.94;79.77;96293.44;107255;1273;98966;-75
2022/05/25 07:22:14;;;;;;;9.90;7.50;;;;;;;20.02;78.60;96297.34;107291;1273;115028;-75
2022/05/25 07:24:45;;;;;;;9.90;7.50;;;;;;;20.27;78.37;96297.04;107245;1273;98220;-75
2022/05/25 07:27:16;;;;;;;8.90;6.90;;;;;;;22.06;75.37;96294.38;106345;1273;1311638;-75
2022/05/25 07:29:47;;;;;;;7.40;6.60;;;;;;;23.94;74.13;96285.67;107356;1273;94038;-75
2022/05/25 07:32:22;;;;;;;6.50;5.80;;;;;;;26.33;68.59;96284.14;107130;1273;133671;-75
2022/05/25 07:34:57;;;;;;;9.20;6.70;;;;;;;25.74;62.85;96286.04;107368;1273;33062;-75
2022/05/25 07:37:34;;;;;;;8.00;6.90;;;;;;;24.37;62.38;96288.39;107191;1274;135380;-75
2022/05/25 07:40:12;;;;;;;8.20;6.90;;;;;;;23.07;61.82;96288.84;107058;1274;92350;-75
2022/05/25 07:42:47;;;;;;;8.10;6.90;;;;;;;22.63;64.96;96287.83;107369;1273;49085;-74
2022/05/25 07:45:18;;;;;;;9.50;7.60;;;;;;;23.24;66.98;96287.45;107236;1273;78693;-75
2022/05/25 07:47:53;;;;;;;9.00;7.40;;;;;;;23.46;65.82;96290.27;107376;1273;54409;-74
2022/05/25 07:50:25;;;;;;;8.20;7.30;;;;;;;23.09;64.86;96285.80;107247;1273;122708;-74
2022/05/25 07:52:59;;;;;;;10.60;8.20;;;;;;;22.69;64.81;96290.85;107077;1274;361436;-75
2022/05/25 07:55:31;;;;;;;11.60;8.70;;;;;;;22.43;65.95;96285.30;107317;1273;81249;-75
2022/05/25 07:58:02;;;;;;;9.90;7.50;;;;;;;22.29;66.55;96281.77;107318;1273;62102;-75
2022/05/25 08:00:34;;;;;;;8.80;7.70;;;;;;;22.26;66.60;96290.66;107396;1273;34049;-74
2022/05/25 08:05:58;;;;;;;11.00;8.30;;;;;;;21.70;66.90;96295.59;107365;1273;50041;-74
2022/05/25 08:08:30;;;;;;;9.50;7.60;;;;;;;21.53;67.50;96289.89;107368;1273;84417;-74
2022/05/25 08:11:04;;;;;;;9.10;7.20;;;;;;;21.42;67.34;96298.31;107379;1273;35638;-75
2022/05/25 08:13:39;;;;;;;7.90;6.90;;;;;;;21.31;67.91;96303.04;107295;1273;61311;-74
2022/05/25 08:16:11;;;;;;;9.80;6.70;;;;;;;21.19;67.00;96300.15;107281;1273;95149;-74
2022/05/25 08:18:42;;;;;;;8.70;6.80;;;;;;;20.65;66.30;96304.04;107351;1273;59734;-74
2022/05/25 08:21:13;;;;;;;8.90;6.60;;;;;;;20.47;67.54;96303.07;107362;1273;55080;-74
2022/05/25 08:23:45;;;;;;;8.60;6.90;;;;;;;20.33;67.04;96299.80;107382;1273;59764;-74
2022/05/25 08:26:16;;;;;;;8.50;6.40;;;;;;;20.25;67.90;96301.98;107231;1273;89785;-74
2022/05/25 08:28:47;;;;;;;7.80;5.90;;;;;;;20.36;68.48;96298.56;107352;1273;40452;-74
2022/05/25 08:31:18;;;;;;;7.20;6.20;;;;;;;20.54;69.20;96295.23;107191;1273;117332;-74
2022/05/25 08:33:49;;;;;;;7.50;6.40;;;;;;;20.77;69.61;96291.45;107233;1273;125809;-74
2022/05/25 08:36:21;;;;;;;8.50;6.50;;;;;;;21.01;69.96;96287.05;107399;1273;32127;-74
2022/05/25 08:38:55;;;;;;;8.30;6.70;;;;;;;21.28;69.63;96286.46;107263;1273;138953;-74
2022/05/25 08:41:30;;;;;;;8.90;6.90;;;;;;;21.60;69.38;96287.24;107382;1273;35122;-74
2022/05/25 08:44:03;;;;;;;8.60;6.40;;;;;;;21.80;68.71;96284.52;107264;1273;95955;-75
2022/05/25 08:46:35;;;;;;;11.10;7.00;;;;;;;21.88;67.67;96287.60;107234;1273;78957;-74
2022/05/25 08:49:13;;;;;;;7.80;6.80;;;;;;;21.85;67.46;96299.04;107360;1273;34684;-74
2022/05/25 08:51:49;;;;;;;7.90;6.80;;;;;;;21.89;67.54;96300.57;107322;1273;81406;-74
2022/05/25 08:54:20;;;;;;;9.70;6.90;;;;;;;21.96;66.65;96297.52;107369;1273;33860;-74
2022/05/25 08:56:56;;;;;;;9.70;7.00;;;;;;;21.94;66.16;96302.27;107352;1273;44648;-74
2022/05/25 08:59:31;;;;;;;7.10;6.40;;;;;;;22.10;66.26;96301.17;107312;1273;106714;-74
2022/05/25 09:02:10;;;;;;;7.70;6.40;;;;;;;22.59;66.34;96304.91;107388;1273;33674;-75
2022/05/25 09:04:47;;;;;;;7.10;6.40;;;;;;;23.14;65.65;96301.23;107198;1275;100848;-75
2022/05/25 09:07:30;;;;;;;8.00;6.60;;;;;;;23.57;64.03;96295.74;107228;1274;35302;-75
2022/05/25 09:10:03;;;;;;;7.40;6.00;;;;;;;23.90;63.31;96292.39;107197;1274;83142;-75
2022/05/25 09:12:40;;;;;;;7.30;6.50;;;;;;;23.95;62.22;96297.09;107279;1273;82833;-75
2022/05/25 09:15:17;;;;;;;8.60;6.70;;;;;;;23.91;61.52;96300.27;107392;1273;36286;-74
2022/05/25 09:17:53;;;;;;;9.70;7.70;;;;;;;23.93;61.63;96306.73;107263;1273;78023;-74
2022/05/25 09:20:31;;;;;;;8.80;6.60;;;;;;;23.85;60.46;96311.36;107345;1273;34940;-75
2022/05/25 09:23:03;;;;;;;7.80;6.80;;;;;;;23.54;59.60;96313.16;107298;1273;74925;-75
2022/05/25 09:25:35;;;;;;;8.30;6.90;;;;;;;23.02;59.37;96318.38;107254;1273;73604;-75
2022/05/25 09:28:12;;;;;;;10.20;6.30;;;;;;;22.64;59.86;96317.48;107354;1273;39711;-75
2022/05/25 09:30:46;;;;;;;8.50;6.30;;;;;;;22.45;60.63;96312.65;107193;1273;129626;-74
2022/05/25 09:33:28;;;;;;;9.30;6.70;;;;;;;22.46;61.22;96315.37;107226;1274;37362;-75
2022/05/25 09:36:03;;;;;;;9.10;7.00;;;;;;;22.31;60.65;96313.96;107316;1273;89876;-74
2022/05/25 09:38:53;;;;;;;6.40;5.70;;;;;;;21.84;60.76;96317.45;107351;1273;34983;-75
2022/05/25 09:41:29;;;;;;;9.50;7.30;;;;;;;21.45;61.34;96319.08;107318;1273;65680;-74
2022/05/25 09:44:03;;;;;;;10.70;7.30;;;;;;;21.32;62.65;96312.59;107402;1273;74960;-74
2022/05/25 09:46:42;;;;;;;8.70;7.50;;;;;;;21.02;62.70;96306.23;107320;1273;76152;-75
2022/05/25 09:49:47;;;;;;;8.60;7.60;;;;;;;20.77;63.81;96306.46;107152;1275;72812;-74
2022/05/25 09:52:28;;;;;;;12.00;9.10;;;;;;;20.72;64.58;96298.59;107385;1273;31817;-74
2022/05/25 09:55:04;;;;;;;10.50;8.40;;;;;;;20.60;64.80;96303.30;107360;1273;77020;-74
2022/05/25 09:57:39;;;;;;;9.80;8.00;;;;;;;20.43;65.51;96306.47;107203;1273;130636;-74
2022/05/25 10:00:21;;;;;;;11.00;7.30;;;;;;;20.55;66.61;96308.58;107300;1273;79821;-74
2022/05/25 10:03:00;;;;;;;9.00;6.80;;;;;;;20.80;66.88;96305.13;107176;1275;88917;-74
2022/05/25 10:05:35;;;;;;;9.20;7.10;;;;;;;21.28;67.16;96306.70;107317;1273;60024;-75
2022/05/25 10:08:21;;;;;;;8.00;6.80;;;;;;;21.48;65.91;96311.20;107373;1273;57899;-75
2022/05/25 10:10:56;;;;;;;9.50;6.80;;;;;;;21.39;65.43;96310.33;107155;1273;73115;-74
2022/05/25 10:13:29;;;;;;;10.60;7.40;;;;;;;21.30;65.46;96307.09;107519;1273;34848;-74
2022/05/25 10:16:01;;;;;;;8.80;7.30;;;;;;;21.27;65.73;96304.17;107196;1273;112261;-74
2022/05/25 10:18:40;;;;;;;7.90;6.70;;;;;;;21.13;65.28;96301.61;107250;1274;35827;-75
2022/05/25 10:21:22;;;;;;;8.30;7.40;;;;;;;21.02;66.00;96302.08;107274;1274;80517;-75
2022/05/25 10:23:53;;;;;;;8.50;7.60;;;;;;;20.89;66.67;96305.88;107311;1273;80847;-74
2022/05/25 10:26:34;;;;;;;8.80;7.60;;;;;;;20.81;67.00;96308.85;107343;1274;35677;-74
2022/05/25 10:29:06;;;;;;;;;;;;;;;20.70;67.28;96308.39;107351;1273;67984;-75
2022/05/25 10:37:39;;;;;;;9.00;8.00;;;;;;;20.55;68.03;96318.05;107271;1273;103422;-74
2022/05/25 10:40:12;;;;;;;8.70;7.70;;;;;;;20.67;68.41;96316.41;107348;1273;56372;-74
2022/05/25 10:42:49;;;;;;;9.60;8.30;;;;;;;20.69;67.88;96316.30;107353;1273;89296;-74
2022/05/25 10:45:25;;;;;;;10.10;9.00;;;;;;;20.75;68.25;96315.34;107371;1274;38860;-74
2022/05/25 10:48:09;;;;;;;12.20;9.30;;;;;;;20.85;68.51;96316.65;107301;1274;84613;-75
2022/05/25 10:50:51;;;;;;;10.70;8.90;;;;;;;20.91;68.75;96318.70;107182;1274;125629;-74
2022/05/25 10:53:34;;;;;;;11.60;8.70;;;;;;;20.84;68.21;96316.70;107394;1274;36442;-74
2022/05/25 10:56:18;;;;;;;10.60;8.10;;;;;;;20.55;68.59;96322.27;107128;1274;157536;-75
2022/05/25 10:59:03;;;;;;;9.80;7.90;;;;;;;20.34;69.29;96317.98;107331;1273;76745;-74
2022/05/25 11:01:55;;;;;;;10.10;8.50;;;;;;;20.19;69.72;96322.39;107260;1274;87998;-74
2022/05/25 11:04:52;;;;;;;10.20;8.70;;;;;;;20.17;69.83;96322.48;107275;1274;105303;-74
2022/05/25 11:07:32;;;;;;;9.60;8.40;;;;;;;20.33;70.31;96322.02;107398;1274;32096;-74
2022/05/25 11:10:26;;;;;;;9.50;8.30;;;;;;;20.53;69.71;96323.23;107209;1274;118072;-74
2022/05/25 11:13:14;;;;;;;9.60;8.10;;;;;;;20.52;69.38;96324.45;107447;1273;51410;-75
2022/05/25 11:15:52;;;;;;;9.90;8.70;;;;;;;20.31;69.09;96323.04;107332;1274;44088;-74
2022/05/25 11:18:47;;;;;;;9.70;8.00;;;;;;;20.21;69.53;96327.64;107259;1274;117442;-74
2022/05/25 11:21:34;;;;;;;11.80;9.20;;;;;;;20.20;69.60;96326.63;107373;1274;34292;-74
2022/05/25 11:24:41;;;;;;;10.60;9.60;;;;;;;20.10;69.78;96325.05;107388;1274;36760;-74
2022/05/25 11:27:36;;;;;;;18.10;14.90;;;;;;;19.87;70.70;96323.79;107091;1275;77492;-74
2022/05/25 11:30:17;;;;;;;21.90;19.60;;;;;;;19.29;72.65;96324.33;107292;1273;69641;-74
2022/05/25 11:33:07;;;;;;;21.20;19.00;;;;;;;18.73;74.68;96334.59;107249;1274;109777;-74
2022/05/25 11:35:43;;;;;;;;;;;;;;;18.32;77.16;96352.17;107133;1274;115874;-74
2022/05/25 11:38:30;;;;;;;17.10;14.50;;;;;;;17.81;77.88;96361.45;107287;1274;63138;-73
2022/05/25 11:41:17;;;;;;;9.90;8.70;;;;;;;17.54;79.37;96356.88;107313;1274;83947;-74
2022/05/25 11:44:14;;;;;;;10.60;9.40;;;;;;;17.26;79.79;96375.14;107313;1274;50598;-73
2022/05/25 11:46:47;;;;;;;11.00;9.20;;;;;;;17.04;80.47;96372.64;107396;1274;34105;-73
2022/05/25 11:49:41;;;;;;;8.20;6.60;;;;;;;16.89;81.14;96379.89;107381;1274;63962;-73
2022/05/25 11:52:38;;;;;;;6.60;5.00;;;;;;;16.74;81.88;96383.40;107295;1274;67143;-73
2022/05/25 11:55:21;;;;;;;6.20;5.60;;;;;;;16.58;82.86;96387.04;107156;1274;61787;-74
2022/05/25 11:58:03;;;;;;;8.50;7.60;;;;;;;16.47;83.72;96393.19;107245;1274;48451;-74
2022/05/25 12:00:45;;;;;;;9.40;8.40;;;;;;;16.37;84.24;96396.59;107235;1274;57726;-74
2022/05/25 12:03:41;;;;;;;12.60;10.40;;;;;;;16.34;84.43;96396.17;107275;1274;67510;-73
2022/05/25 12:06:26;;;;;;;9.50;8.40;;;;;;;16.35;84.99;96403.79;107339;1275;46233;-74
2022/05/25 12:09:09;;;;;;;11.20;10.00;;;;;;;16.42;85.53;96409.23;107367;1274;53327;-74
2022/05/25 12:11:45;;;;;;;8.70;7.90;;;;;;;16.40;85.51;96411.61;107322;1274;65332;-74
2022/05/25 12:14:39;;;;;;;9.70;8.70;;;;;;;16.41;85.99;96409.42;107408;1274;31998;-74
2022/05/25 12:17:19;;;;;;;9.10;8.20;;;;;;;16.32;86.92;96411.74;107360;1273;33428;-74
2022/05/25 12:19:54;;;;;;;9.50;8.50;;;;;;;16.26;86.81;96416.86;107255;1274;79743;-73